createdAt,value
2023-05-10T00:00:30.287Z,3.13
2023-05-10T00:03:06.512Z,2.37
2023-05-10T00:05:40.818Z,2.00
2023-05-10T00:08:14.783Z,2.40
2023-05-10T00:10:48.821Z,2.10
2023-05-10T00:13:22.490Z,2.40
2023-05-10T00:15:55.893Z,2.23
2023-05-10T00:18:31.233Z,2.17
2023-05-10T00:21:05.209Z,3.00
2023-05-10T00:23:39.246Z,2.40
2023-05-10T00:26:13.385Z,2.13
2023-05-10T00:28:47.217Z,2.60
2023-05-10T00:31:21.557Z,3.40
2023-05-10T00:33:57.603Z,3.23
2023-05-10T00:36:32.555Z,3.03
2023-05-10T00:39:06.334Z,2.90
2023-05-10T00:41:40.208Z,2.93
2023-05-10T00:44:14.028Z,4.43
2023-05-10T00:46:49.258Z,3.40
2023-05-10T00:49:24.459Z,3.37
2023-05-10T00:51:58.307Z,3.60
2023-05-10T00:54:33.033Z,4.40
2023-05-10T00:57:07.297Z,3.20
2023-05-10T00:59:41.216Z,3.80
2023-05-10T01:02:15.739Z,3.57
2023-05-10T01:04:53.281Z,3.87
2023-05-10T01:07:27.102Z,5.77
2023-05-10T01:10:02.315Z,3.93
2023-05-10T01:12:38.590Z,4.10
2023-05-10T01:15:14.398Z,3.47
2023-05-10T01:17:50.499Z,3.17
2023-05-10T01:20:27.148Z,3.60
2023-05-10T01:23:33.354Z,4.70
2023-05-10T01:27:00.369Z,3.80
2023-05-10T01:30:15.955Z,2.77
2023-05-10T01:33:03.920Z,3.53
2023-05-10T01:35:47.426Z,4.17
2023-05-10T01:38:32.349Z,3.80
2023-05-10T01:41:21.102Z,4.03
2023-05-10T01:44:04.162Z,3.77
2023-05-10T01:46:40.246Z,3.47
2023-05-10T01:49:25.863Z,4.50
2023-05-10T01:52:08.894Z,3.80
2023-05-10T01:54:56.170Z,4.20
2023-05-10T01:57:41.483Z,3.97
2023-05-10T02:00:17.995Z,4.07
2023-05-10T02:02:54.231Z,4.23
2023-05-10T02:05:32.657Z,5.73
2023-05-10T02:08:10.012Z,4.63
2023-05-10T02:10:45.952Z,4.53
2023-05-10T02:13:21.409Z,4.93
2023-05-10T02:15:57.395Z,3.83
2023-05-10T02:18:32.514Z,4.03
2023-05-10T02:21:10.750Z,4.50
2023-05-10T02:23:47.613Z,5.10
2023-05-10T02:26:26.006Z,5.30
2023-05-10T02:29:04.499Z,5.50
2023-05-10T02:31:39.937Z,4.93
2023-05-10T02:34:15.247Z,5.33
2023-05-10T02:36:51.287Z,5.57
2023-05-10T02:39:27.448Z,5.17
2023-05-10T02:42:03.398Z,5.67
2023-05-10T02:44:39.054Z,5.07
2023-05-10T02:47:12.460Z,6.30
2023-05-10T02:49:46.059Z,5.77
2023-05-10T02:52:28.978Z,5.27
2023-05-10T02:55:07.509Z,5.13
2023-05-10T02:57:46.737Z,4.93
2023-05-10T03:00:22.233Z,5.43
2023-05-10T03:02:56.838Z,6.30
2023-05-10T03:05:30.380Z,5.57
2023-05-10T03:08:07.317Z,7.67
2023-05-10T03:11:05.844Z,4.57
2023-05-10T03:13:52.031Z,6.20
2023-05-10T03:16:36.848Z,5.33
2023-05-10T03:19:22.279Z,5.40
2023-05-10T03:22:02.415Z,5.63
2023-05-10T03:24:41.316Z,7.50
2023-05-10T03:27:18.332Z,5.47
2023-05-10T03:29:53.579Z,6.53
2023-05-10T03:32:28.237Z,6.97
2023-05-10T03:35:03.386Z,6.33
2023-05-10T03:37:37.445Z,5.60
2023-05-10T03:40:14.182Z,6.23
2023-05-10T03:42:48.227Z,6.10
2023-05-10T03:45:21.895Z,7.27
2023-05-10T03:47:56.629Z,7.73
2023-05-10T03:50:30.450Z,9.20
2023-05-10T03:53:04.433Z,9.00
2023-05-10T03:55:39.537Z,8.53
2023-05-10T03:58:14.228Z,8.43
2023-05-10T04:00:48.230Z,8.97
2023-05-10T04:03:22.454Z,8.93
2023-05-10T04:06:03.250Z,9.53
2023-05-10T04:08:37.854Z,9.97
2023-05-10T04:11:15.454Z,8.37
2023-05-10T04:13:49.480Z,7.57
2023-05-10T04:16:23.106Z,8.67
2023-05-10T04:18:56.589Z,7.20
2023-05-10T04:21:30.366Z,6.90
2023-05-10T04:24:04.134Z,8.83
2023-05-10T04:26:39.299Z,9.17
2023-05-10T04:29:13.073Z,8.63
2023-05-10T04:31:46.774Z,9.33
2023-05-10T04:34:20.314Z,11.00
2023-05-10T04:36:54.224Z,9.33
2023-05-10T04:39:28.180Z,10.63
2023-05-10T04:42:03.977Z,9.77
2023-05-10T04:44:38.457Z,11.97
2023-05-10T04:47:13.775Z,12.03
2023-05-10T04:49:47.301Z,11.20
2023-05-10T04:52:20.725Z,10.93
2023-05-10T04:54:54.496Z,11.80
2023-05-10T04:57:30.159Z,12.30
2023-05-10T05:00:04.582Z,12.47
2023-05-10T05:02:38.651Z,14.23
2023-05-10T05:05:12.935Z,12.63
2023-05-10T05:07:46.580Z,13.13
2023-05-10T05:10:20.749Z,13.03
2023-05-10T05:12:56.185Z,13.87
2023-05-10T05:15:31.345Z,13.53
2023-05-10T05:18:05.279Z,13.63
2023-05-10T05:20:39.393Z,13.70
2023-05-10T05:23:12.896Z,14.40
2023-05-10T05:25:46.893Z,15.37
2023-05-10T05:28:22.342Z,13.57
2023-05-10T05:30:55.853Z,13.33
2023-05-10T05:33:29.468Z,13.43
2023-05-10T05:36:06.775Z,15.27
2023-05-10T05:38:40.607Z,15.73
2023-05-10T05:41:15.313Z,15.67
2023-05-10T05:43:50.715Z,15.77
2023-05-10T05:46:24.244Z,14.70
2023-05-10T05:48:58.402Z,15.30
2023-05-10T05:51:32.318Z,16.20
2023-05-10T05:54:06.430Z,17.50
2023-05-10T05:56:40.423Z,15.83
2023-05-10T05:59:15.560Z,16.57
2023-05-10T06:01:49.415Z,17.13
2023-05-10T06:04:23.601Z,17.10
2023-05-10T06:06:57.378Z,16.83
2023-05-10T06:09:31.315Z,15.60
2023-05-10T06:12:05.434Z,14.97
2023-05-10T06:14:41.100Z,16.33
2023-05-10T06:17:14.474Z,16.70
2023-05-10T06:19:48.379Z,15.87
2023-05-10T06:22:23.616Z,15.47
2023-05-10T06:24:57.277Z,15.67
2023-05-10T06:27:31.607Z,15.83
2023-05-10T06:30:13.370Z,15.67
2023-05-10T06:32:47.917Z,15.30
2023-05-10T06:35:21.884Z,15.17
2023-05-10T06:37:55.857Z,14.83
2023-05-10T06:40:30.482Z,14.37
2023-05-10T06:43:04.372Z,15.47
2023-05-10T06:45:39.966Z,14.00
2023-05-10T06:48:13.727Z,16.03
2023-05-10T06:50:47.121Z,16.43
2023-05-10T06:53:20.914Z,19.20
2023-05-10T06:55:54.658Z,16.23
2023-05-10T06:58:28.467Z,18.13
2023-05-10T07:01:06.743Z,16.10
2023-05-10T07:03:40.386Z,15.63
2023-05-10T07:06:29.490Z,15.10
2023-05-10T07:09:07.303Z,16.63
2023-05-10T07:11:40.834Z,19.47
2023-05-10T07:14:15.243Z,17.70
2023-05-10T07:16:50.608Z,19.07
2023-05-10T07:19:24.840Z,20.80
2023-05-10T07:22:00.549Z,18.57
2023-05-10T07:24:36.013Z,17.43
2023-05-10T07:27:10.159Z,16.90
2023-05-10T07:29:44.632Z,16.73
2023-05-10T07:32:19.909Z,18.57
2023-05-10T07:34:53.776Z,18.57
2023-05-10T07:37:27.476Z,17.37
2023-05-10T07:40:02.668Z,18.17
2023-05-10T07:42:36.596Z,19.40
2023-05-10T07:45:11.671Z,17.70
2023-05-10T07:47:47.025Z,18.07
2023-05-10T07:50:20.894Z,19.20
2023-05-10T07:52:55.039Z,17.63
2023-05-10T07:55:29.702Z,21.73
2023-05-10T07:58:04.612Z,18.80
2023-05-10T08:00:40.693Z,19.83
2023-05-10T08:03:16.314Z,20.63
2023-05-10T08:05:50.136Z,22.70
2023-05-10T08:08:25.245Z,18.43
2023-05-10T08:10:58.990Z,17.50
2023-05-10T08:13:34.120Z,19.43
2023-05-10T08:16:08.582Z,19.97
2023-05-10T08:18:44.018Z,18.73
2023-05-10T08:21:18.433Z,17.97
2023-05-10T08:23:52.305Z,16.57
2023-05-10T08:26:25.962Z,18.63
2023-05-10T08:28:59.886Z,18.87
2023-05-10T08:31:33.812Z,20.07
2023-05-10T08:34:09.317Z,18.57
2023-05-10T08:36:43.409Z,17.20
2023-05-10T08:39:29.376Z,17.37
2023-05-10T08:42:07.225Z,17.40
2023-05-10T08:44:41.184Z,15.93
2023-05-10T08:47:19.066Z,14.10
2023-05-10T08:49:56.106Z,13.37
2023-05-10T08:52:32.708Z,12.70
2023-05-10T08:55:08.415Z,11.37
2023-05-10T08:57:42.325Z,11.23
2023-05-10T09:00:17.985Z,10.67
2023-05-10T09:02:53.359Z,10.20
2023-05-10T09:05:28.514Z,10.23
2023-05-10T09:08:02.647Z,11.67
2023-05-10T09:10:36.836Z,11.10
2023-05-10T09:13:13.972Z,11.90
2023-05-10T09:15:49.391Z,12.20
2023-05-10T09:18:23.465Z,12.30
2023-05-10T09:20:59.403Z,11.47
2023-05-10T09:23:33.418Z,10.03
2023-05-10T09:26:07.749Z,10.93
2023-05-10T09:28:55.385Z,11.47
2023-05-10T09:31:47.806Z,8.87
2023-05-10T09:34:23.228Z,9.90
2023-05-10T09:37:02.398Z,10.03
2023-05-10T09:39:37.723Z,9.53
2023-05-10T09:42:12.481Z,11.10
2023-05-10T09:44:49.364Z,11.33
2023-05-10T09:47:23.619Z,12.57
2023-05-10T09:50:00.180Z,12.03
2023-05-10T09:52:51.420Z,11.10
2023-05-10T09:55:27.149Z,13.33
2023-05-10T09:58:05.518Z,14.10
2023-05-10T10:00:41.896Z,11.50
2023-05-10T10:03:17.539Z,12.30
2023-05-10T10:05:52.534Z,14.03
2023-05-10T10:08:28.277Z,14.73
2023-05-10T10:11:02.722Z,17.10
2023-05-10T10:13:37.633Z,18.23
2023-05-10T10:16:12.135Z,14.60
2023-05-10T10:18:46.833Z,13.57
2023-05-10T10:21:21.846Z,13.53
2023-05-10T10:23:57.185Z,13.60
2023-05-10T10:26:31.990Z,13.23
2023-05-10T10:29:26.233Z,13.20
2023-05-10T10:32:13.386Z,12.53
2023-05-10T10:34:47.293Z,11.80
2023-05-10T10:37:21.526Z,12.13
2023-05-10T10:39:59.290Z,10.80
2023-05-10T10:42:51.034Z,10.90
2023-05-10T10:45:26.381Z,11.10
2023-05-10T10:48:24.978Z,11.93
2023-05-10T10:51:02.951Z,10.23
2023-05-10T10:53:37.193Z,10.53
2023-05-10T10:56:16.372Z,11.53
2023-05-10T10:58:54.936Z,11.03
2023-05-10T11:01:36.556Z,10.73
2023-05-10T11:04:22.713Z,11.67
2023-05-10T11:07:20.314Z,10.17
2023-05-10T11:09:54.323Z,9.13
2023-05-10T11:12:29.478Z,13.17
2023-05-10T11:15:03.632Z,13.43
2023-05-10T11:17:38.679Z,13.10
2023-05-10T11:20:16.829Z,11.07
2023-05-10T11:22:54.796Z,10.13
2023-05-10T11:25:30.440Z,10.60
2023-05-10T11:28:07.260Z,9.57
2023-05-10T11:30:42.362Z,10.67
2023-05-10T11:33:20.837Z,8.23
2023-05-10T11:35:54.564Z,8.17
2023-05-10T11:38:30.295Z,10.07
2023-05-10T11:41:04.443Z,8.73
2023-05-10T11:43:41.357Z,9.33
2023-05-10T11:46:16.375Z,7.83
2023-05-10T11:48:53.096Z,7.47
2023-05-10T11:51:28.249Z,7.87
2023-05-10T11:54:03.910Z,6.77
2023-05-10T11:56:38.709Z,8.03
2023-05-10T11:59:17.425Z,8.47
2023-05-10T12:01:51.947Z,9.07
2023-05-10T12:04:26.040Z,9.57
2023-05-10T12:07:00.364Z,9.63
2023-05-10T12:09:43.778Z,9.93
2023-05-10T12:12:20.316Z,10.20
2023-05-10T12:14:55.563Z,9.13
2023-05-10T12:17:31.648Z,10.20
2023-05-10T12:20:18.506Z,7.70
2023-05-10T12:22:55.585Z,8.70
2023-05-10T12:25:34.240Z,10.17
2023-05-10T12:28:11.137Z,8.57
2023-05-10T12:30:47.091Z,7.37
2023-05-10T12:33:21.002Z,7.77
2023-05-10T12:35:57.751Z,8.63
2023-05-10T12:38:35.956Z,7.77
2023-05-10T12:41:12.493Z,8.50
2023-05-10T12:43:48.165Z,8.90
2023-05-10T12:46:26.473Z,8.23
2023-05-10T12:49:08.419Z,8.87
2023-05-10T12:51:43.298Z,7.53
2023-05-10T12:54:17.296Z,8.27
2023-05-10T12:56:50.878Z,7.43
2023-05-10T12:59:24.685Z,8.93
2023-05-10T13:02:00.442Z,8.87
2023-05-10T13:04:35.074Z,7.83
2023-05-10T13:07:09.065Z,6.17
2023-05-10T13:09:43.023Z,9.57
2023-05-10T13:12:17.056Z,7.30
2023-05-10T13:14:50.993Z,6.93
2023-05-10T13:17:28.831Z,5.73
2023-05-10T13:20:02.477Z,6.00
2023-05-10T13:22:40.600Z,5.23
2023-05-10T13:25:15.552Z,5.40
2023-05-10T13:27:49.071Z,5.43
2023-05-10T13:30:22.825Z,4.17
2023-05-10T13:32:58.673Z,3.83
2023-05-10T13:35:32.370Z,4.40
2023-05-10T13:38:08.989Z,3.73
2023-05-10T13:40:42.900Z,3.70
2023-05-10T13:43:16.481Z,4.87
2023-05-10T13:45:50.505Z,3.57
2023-05-10T13:48:26.607Z,4.23
2023-05-10T13:51:00.738Z,3.43
2023-05-10T13:53:34.729Z,4.00
2023-05-10T13:56:09.239Z,3.63
2023-05-10T13:58:44.100Z,3.90
2023-05-10T14:01:17.640Z,3.57
2023-05-10T14:03:53.106Z,3.43
2023-05-10T14:06:28.017Z,2.53
2023-05-10T14:09:01.650Z,5.93
2023-05-10T14:11:35.285Z,3.83
2023-05-10T14:14:09.226Z,2.90
2023-05-10T14:16:46.558Z,3.80
2023-05-10T14:19:22.485Z,4.23
2023-05-10T14:21:56.583Z,5.37
2023-05-10T14:24:30.641Z,4.97
2023-05-10T14:27:04.062Z,6.07
2023-05-10T14:29:37.486Z,4.57
2023-05-10T14:32:11.555Z,4.40
2023-05-10T14:34:47.173Z,3.60
2023-05-10T14:37:21.159Z,3.23
2023-05-10T14:39:55.082Z,3.53
2023-05-10T14:42:29.509Z,4.03
2023-05-10T14:45:03.462Z,3.10
2023-05-10T14:47:37.206Z,3.00
2023-05-10T14:50:21.482Z,3.23
2023-05-10T14:53:06.183Z,3.70
2023-05-10T14:55:40.399Z,3.63
2023-05-10T14:58:15.258Z,3.10
2023-05-10T15:00:50.043Z,2.77
2023-05-10T15:03:24.627Z,3.90
2023-05-10T15:06:00.143Z,2.83
2023-05-10T15:08:33.700Z,3.30
2023-05-10T15:11:08.112Z,3.27
2023-05-10T15:13:41.927Z,3.60
2023-05-10T15:16:15.937Z,3.30
2023-05-10T15:18:50.223Z,4.10
2023-05-10T15:21:26.132Z,3.70
2023-05-10T15:23:59.649Z,4.03
2023-05-10T15:26:34.152Z,3.87
2023-05-10T15:29:08.066Z,3.37
2023-05-10T15:31:41.770Z,4.60
2023-05-10T15:34:16.381Z,5.63
2023-05-10T15:36:51.642Z,5.03
2023-05-10T15:39:25.351Z,5.90
2023-05-10T15:41:59.156Z,3.83
2023-05-10T15:44:33.121Z,3.80
2023-05-10T15:47:08.393Z,5.10
2023-05-10T15:49:42.458Z,4.60
2023-05-10T15:52:19.262Z,4.43
2023-05-10T15:54:53.168Z,4.80
2023-05-10T15:57:27.030Z,5.23
2023-05-10T16:00:01.397Z,4.57
2023-05-10T16:02:38.180Z,4.23
2023-05-10T16:05:12.396Z,4.33
2023-05-10T16:07:47.778Z,4.17
2023-05-10T16:10:21.876Z,5.73
2023-05-10T16:12:56.857Z,7.00
2023-05-10T16:15:30.744Z,4.87
2023-05-10T16:18:04.527Z,5.67
2023-05-10T16:20:38.709Z,5.63
2023-05-10T16:23:15.624Z,6.60
2023-05-10T16:25:49.166Z,6.60
2023-05-10T16:28:23.630Z,6.63
2023-05-10T16:30:57.782Z,6.13
2023-05-10T16:33:31.804Z,5.97
2023-05-10T16:36:06.586Z,9.60
2023-05-10T16:38:41.953Z,9.07
2023-05-10T16:41:15.436Z,7.00
2023-05-10T16:43:49.612Z,6.00
2023-05-10T16:46:23.304Z,7.30
2023-05-10T16:48:59.852Z,6.97
2023-05-10T16:51:35.115Z,8.60
2023-05-10T16:54:10.372Z,7.03
2023-05-10T16:56:44.305Z,6.30
2023-05-10T16:59:18.258Z,8.03
2023-05-10T17:01:53.582Z,7.47
2023-05-10T17:04:27.307Z,6.50
2023-05-10T17:07:00.824Z,6.27
2023-05-10T17:09:36.600Z,6.17
2023-05-10T17:12:10.259Z,5.83
2023-05-10T17:14:44.740Z,5.77
2023-05-10T17:17:18.533Z,4.77
2023-05-10T17:19:52.389Z,5.53
2023-05-10T17:22:26.818Z,3.80
2023-05-10T17:25:02.378Z,4.47
2023-05-10T17:27:35.843Z,5.57
2023-05-10T17:30:12.086Z,5.47
2023-05-10T17:32:45.824Z,3.60
2023-05-10T17:35:22.586Z,3.60
2023-05-10T17:37:57.847Z,3.60
2023-05-10T17:40:33.411Z,3.87
2023-05-10T17:43:07.054Z,3.70
2023-05-10T17:45:41.943Z,3.77
2023-05-10T17:48:16.163Z,3.37
2023-05-10T17:50:52.771Z,3.30
2023-05-10T17:53:27.029Z,3.30
2023-05-10T17:56:01.812Z,3.00
2023-05-10T17:58:38.256Z,2.37
2023-05-10T18:01:12.555Z,2.60
2023-05-10T18:03:46.655Z,3.20
2023-05-10T18:06:21.249Z,3.73
2023-05-10T18:08:54.647Z,3.20
2023-05-10T18:11:29.761Z,2.50
2023-05-10T18:14:05.053Z,3.50
2023-05-10T18:16:38.944Z,2.97
2023-05-10T18:19:12.702Z,2.57
2023-05-10T18:21:46.320Z,4.33
2023-05-10T18:24:30.520Z,2.87
2023-05-10T18:27:13.446Z,2.77
2023-05-10T18:29:48.127Z,2.63
2023-05-10T18:32:21.882Z,2.77
2023-05-10T18:34:56.996Z,2.40
2023-05-10T18:37:30.858Z,3.60
2023-05-10T18:40:05.339Z,3.20
2023-05-10T18:42:40.317Z,2.20
2023-05-10T18:45:14.635Z,1.77
2023-05-10T18:47:48.590Z,1.67
2023-05-10T18:50:22.662Z,2.83
2023-05-10T18:52:57.082Z,2.40
2023-05-10T18:55:31.957Z,2.93
2023-05-10T18:58:08.548Z,3.30
2023-05-10T19:00:42.699Z,3.63
2023-05-10T19:03:16.333Z,3.27
2023-05-10T19:05:50.327Z,6.20
2023-05-10T19:08:25.465Z,3.43
2023-05-10T19:11:01.269Z,4.23
2023-05-10T19:13:36.829Z,5.77
2023-05-10T19:16:16.031Z,4.70
2023-05-10T19:18:51.262Z,4.03
2023-05-10T19:21:26.067Z,3.67
2023-05-10T19:24:01.400Z,4.73
2023-05-10T19:26:36.273Z,3.90
2023-05-10T19:29:12.313Z,4.13
2023-05-10T19:31:48.151Z,5.07
2023-05-10T19:34:22.262Z,3.83
2023-05-10T19:36:57.935Z,5.17
2023-05-10T19:39:33.767Z,3.57
2023-05-10T19:42:07.294Z,4.10
2023-05-10T19:44:42.668Z,4.00
2023-05-10T19:47:16.856Z,4.63
2023-05-10T19:49:50.612Z,4.10
2023-05-10T19:52:24.225Z,3.90
2023-05-10T19:54:58.849Z,4.40
2023-05-10T19:57:32.675Z,3.70
2023-05-10T20:00:11.988Z,4.13
2023-05-10T20:02:45.612Z,5.43
2023-05-10T20:05:19.823Z,4.53
2023-05-10T20:07:53.782Z,4.40
2023-05-10T20:10:29.241Z,5.37
2023-05-10T20:13:03.237Z,4.20
2023-05-10T20:15:38.249Z,5.93
2023-05-10T20:18:11.992Z,3.50
2023-05-10T20:20:46.586Z,3.87
2023-05-10T20:23:20.234Z,4.17
2023-05-10T20:25:55.133Z,3.97
2023-05-10T20:28:31.372Z,4.27
2023-05-10T20:31:06.834Z,3.57
2023-05-10T20:33:40.989Z,4.03
2023-05-10T20:36:15.291Z,4.90
2023-05-10T20:38:48.875Z,6.40
2023-05-10T20:41:23.177Z,4.00
2023-05-10T20:43:57.400Z,4.40
2023-05-10T20:46:33.173Z,4.13
2023-05-10T20:49:07.117Z,5.13
2023-05-10T20:51:41.128Z,4.73
2023-05-10T20:54:14.686Z,4.50
2023-05-10T20:56:48.628Z,4.13
2023-05-10T20:59:22.695Z,5.60
2023-05-10T21:01:58.976Z,5.00
2023-05-10T21:04:33.096Z,4.93
2023-05-10T21:07:06.650Z,7.57
2023-05-10T21:09:40.522Z,4.47
2023-05-10T21:12:15.232Z,5.03
2023-05-10T21:14:49.681Z,5.57
2023-05-10T21:17:24.861Z,5.73
2023-05-10T21:19:58.974Z,4.70
2023-05-10T21:22:32.406Z,4.37
2023-05-10T21:25:07.143Z,4.30
2023-05-10T21:27:41.230Z,4.63
2023-05-10T21:30:15.602Z,4.40
2023-05-10T21:32:50.944Z,5.93
2023-05-10T21:35:25.024Z,5.27
2023-05-10T21:37:58.801Z,4.37
2023-05-10T21:40:32.525Z,4.27
2023-05-10T21:43:06.677Z,4.43
2023-05-10T21:45:40.912Z,4.70
2023-05-10T21:48:16.296Z,4.67
2023-05-10T21:50:49.905Z,4.97
2023-05-10T21:53:23.675Z,4.67
2023-05-10T21:55:57.545Z,4.77
2023-05-10T21:58:31.176Z,6.17
2023-05-10T22:01:05.137Z,4.70
2023-05-10T22:03:41.030Z,5.23
2023-05-10T22:06:14.787Z,5.33
2023-05-10T22:08:48.554Z,5.50
2023-05-10T22:11:22.694Z,4.90
2023-05-10T22:13:56.246Z,6.63
2023-05-10T22:16:30.142Z,5.30
2023-05-10T22:19:05.735Z,5.27
2023-05-10T22:21:39.328Z,5.13
2023-05-10T22:24:13.317Z,4.80
2023-05-10T22:26:47.347Z,5.40
2023-05-10T22:29:21.053Z,6.20
2023-05-10T22:31:55.472Z,5.70
2023-05-10T22:34:30.751Z,6.03
2023-05-10T22:37:05.664Z,6.37
2023-05-10T22:39:39.465Z,6.93
2023-05-10T22:42:13.366Z,6.57
2023-05-10T22:44:48.106Z,7.30
2023-05-10T22:47:21.744Z,8.90
2023-05-10T22:49:58.339Z,7.87
2023-05-10T22:52:32.092Z,8.70
2023-05-10T22:55:07.321Z,7.70
2023-05-10T22:57:41.226Z,10.30
2023-05-10T23:00:16.898Z,9.53
2023-05-10T23:02:53.070Z,9.03
2023-05-10T23:05:28.346Z,7.77
2023-05-10T23:08:02.384Z,7.60
2023-05-10T23:10:37.880Z,8.13
2023-05-10T23:13:11.838Z,7.27
2023-05-10T23:15:47.212Z,7.80
2023-05-10T23:18:21.132Z,8.20
2023-05-10T23:20:58.654Z,10.40
2023-05-10T23:23:37.703Z,7.77
2023-05-10T23:26:11.730Z,8.97
2023-05-10T23:28:45.423Z,9.40
2023-05-10T23:31:20.526Z,7.80
2023-05-10T23:33:54.652Z,8.83
2023-05-10T23:36:31.119Z,8.57
2023-05-10T23:39:05.074Z,8.60
2023-05-10T23:41:39.264Z,9.67
2023-05-10T23:44:12.839Z,9.80
2023-05-10T23:46:47.068Z,10.67
2023-05-10T23:49:20.836Z,10.43
2023-05-10T23:51:56.225Z,9.27
2023-05-10T23:54:30.222Z,10.70
2023-05-10T23:57:05.672Z,10.67
2023-05-10T23:59:39.506Z,10.03
